Terminal Aerodrome Forecast
Issued by NWS Flagstaff, AZ

Home | Current Version | Previous Version | Text Only | Print | Product List | Glossary On
Versions: 1 2 3 4 5 6 7 8 9 10 11 12 13 14
977
FTUS45 KFGZ 281504 AAA
TAFFLG
TAF AMD
KFLG 281504Z 2815/2912 09010G18KT P6SM SCT090
     FM282200 20008KT P6SM BKN090
     FM290100 VRB05KT P6SM FEW090=

USA.gov is the U.S. government's official web portal to all federal, state and local government web resources and services.